sensor_id;sensor_type;location;lat;lon;timestamp;pressure;altitude;pressure_sealevel;temperature;humidity
48015;BME280;33780;51.034;7.120;2023-04-01T00:01:03;98662.50;;;12.34;68.43
48015;BME280;33780;51.034;7.120;2023-04-01T00:03:28;98653.41;;;12.35;68.72
48015;BME280;33780;51.034;7.120;2023-04-01T00:05:55;98652.78;;;12.33;68.74
48015;BME280;33780;51.034;7.120;2023-04-01T00:08:21;98655.28;;;12.34;68.61
48015;BME280;33780;51.034;7.120;2023-04-01T00:10:47;98651.56;;;12.35;68.56
48015;BME280;33780;51.034;7.120;2023-04-01T00:13:13;98658.97;;;12.33;68.63
48015;BME280;33780;51.034;7.120;2023-04-01T00:15:40;98647.63;;;12.31;68.57
48015;BME280;33780;51.034;7.120;2023-04-01T00:18:06;98655.84;;;12.30;68.44
48015;BME280;33780;51.034;7.120;2023-04-01T00:20:31;98647.00;;;12.29;68.19
48015;BME280;33780;51.034;7.120;2023-04-01T00:22:56;98652.53;;;12.28;68.58
48015;BME280;33780;51.034;7.120;2023-04-01T00:25:22;98653.56;;;12.27;68.34
48015;BME280;33780;51.034;7.120;2023-04-01T00:27:47;98659.56;;;12.29;68.06
48015;BME280;33780;51.034;7.120;2023-04-01T00:30:14;98650.69;;;12.28;68.41
48015;BME280;33780;51.034;7.120;2023-04-01T00:32:40;98648.84;;;12.29;68.52
48015;BME280;33780;51.034;7.120;2023-04-01T00:35:05;98639.97;;;12.28;68.03
48015;BME280;33780;51.034;7.120;2023-04-01T00:37:34;98636.44;;;12.28;68.34
48015;BME280;33780;51.034;7.120;2023-04-01T00:40:00;98635.81;;;12.26;68.02
48015;BME280;33780;51.034;7.120;2023-04-01T00:42:25;98635.00;;;12.25;67.74
48015;BME280;33780;51.034;7.120;2023-04-01T00:44:52;98638.69;;;12.24;67.79
48015;BME280;33780;51.034;7.120;2023-04-01T00:47:18;98643.22;;;12.24;68.23
48015;BME280;33780;51.034;7.120;2023-04-01T00:49:48;98639.53;;;12.25;67.89
48015;BME280;33780;51.034;7.120;2023-04-01T00:52:19;98637.47;;;12.27;67.99
48015;BME280;33780;51.034;7.120;2023-04-01T00:54:47;98638.69;;;12.24;68.16
48015;BME280;33780;51.034;7.120;2023-04-01T00:57:41;98643.88;;;12.26;67.78
48015;BME280;33780;51.034;7.120;2023-04-01T01:00:10;98634.78;;;12.27;67.91
48015;BME280;33780;51.034;7.120;2023-04-01T01:02:38;98641.81;;;12.28;68.33
48015;BME280;33780;51.034;7.120;2023-04-01T01:05:03;98645.31;;;12.28;67.82
48015;BME280;33780;51.034;7.120;2023-04-01T01:07:45;98635.44;;;12.29;67.95
48015;BME280;33780;51.034;7.120;2023-04-01T01:10:42;98634.41;;;12.30;67.66
48015;BME280;33780;51.034;7.120;2023-04-01T01:13:29;98627.38;;;12.29;67.77
48015;BME280;33780;51.034;7.120;2023-04-01T01:16:03;98630.06;;;12.29;67.97
48015;BME280;33780;51.034;7.120;2023-04-01T01:21:29;98628.41;;;12.28;67.55
48015;BME280;33780;51.034;7.120;2023-04-01T01:24:24;98618.91;;;12.25;67.47
48015;BME280;33780;51.034;7.120;2023-04-01T01:27:03;98628.16;;;12.23;68.49
48015;BME280;33780;51.034;7.120;2023-04-01T01:32:55;98615.94;;;12.20;67.90
48015;BME280;33780;51.034;7.120;2023-04-01T01:35:38;98621.50;;;12.19;67.84
48015;BME280;33780;51.034;7.120;2023-04-01T01:38:10;98625.22;;;12.18;67.93
48015;BME280;33780;51.034;7.120;2023-04-01T01:40:38;98620.03;;;12.16;68.30
48015;BME280;33780;51.034;7.120;2023-04-01T01:43:08;98626.88;;;12.19;68.37
48015;BME280;33780;51.034;7.120;2023-04-01T01:45:38;98620.69;;;12.18;68.38
48015;BME280;33780;51.034;7.120;2023-04-01T01:48:06;98623.38;;;12.18;68.22
48015;BME280;33780;51.034;7.120;2023-04-01T01:50:34;98627.69;;;12.19;68.14
48015;BME280;33780;51.034;7.120;2023-04-01T01:53:06;98614.88;;;12.15;68.55
48015;BME280;33780;51.034;7.120;2023-04-01T01:55:35;98617.56;;;12.15;68.47
48015;BME280;33780;51.034;7.120;2023-04-01T01:58:06;98619.41;;;12.14;68.67
48015;BME280;33780;51.034;7.120;2023-04-01T02:00:35;98624.59;;;12.16;68.41
48015;BME280;33780;51.034;7.120;2023-04-01T02:03:01;98623.13;;;12.13;68.54
48015;BME280;33780;51.034;7.120;2023-04-01T02:05:28;98623.31;;;12.12;68.76
48015;BME280;33780;51.034;7.120;2023-04-01T02:08:01;98618.97;;;12.10;68.93
48015;BME280;33780;51.034;7.120;2023-04-01T02:10:28;98625.38;;;12.09;69.25
48015;BME280;33780;51.034;7.120;2023-04-01T02:13:00;98628.44;;;12.06;69.66
48015;BME280;33780;51.034;7.120;2023-04-01T02:15:31;98626.16;;;12.03;69.46
48015;BME280;33780;51.034;7.120;2023-04-01T02:18:00;98626.31;;;12.02;69.56
48015;BME280;33780;51.034;7.120;2023-04-01T02:20:27;98630.00;;;12.01;69.74
48015;BME280;33780;51.034;7.120;2023-04-01T02:22:54;98636.78;;;11.97;70.50
48015;BME280;33780;51.034;7.120;2023-04-01T02:25:27;98634.50;;;11.94;70.54
48015;BME280;33780;51.034;7.120;2023-04-01T02:27:54;98631.19;;;11.92;70.12
48015;BME280;33780;51.034;7.120;2023-04-01T02:30:21;98634.69;;;11.92;70.60
48015;BME280;33780;51.034;7.120;2023-04-01T02:32:48;98637.56;;;11.91;70.59
48015;BME280;33780;51.034;7.120;2023-04-01T02:35:15;98637.13;;;11.87;70.74
48015;BME280;33780;51.034;7.120;2023-04-01T02:37:42;98636.28;;;11.87;71.16
48015;BME280;33780;51.034;7.120;2023-04-01T02:40:11;98638.31;;;11.85;71.02
48015;BME280;33780;51.034;7.120;2023-04-01T02:42:37;98629.63;;;11.83;70.86
48015;BME280;33780;51.034;7.120;2023-04-01T02:45:03;98632.50;;;11.81;71.58
48015;BME280;33780;51.034;7.120;2023-04-01T02:47:29;98635.38;;;11.79;71.29
48015;BME280;33780;51.034;7.120;2023-04-01T02:49:54;98628.34;;;11.78;71.39
48015;BME280;33780;51.034;7.120;2023-04-01T02:52:27;98636.56;;;11.77;71.57
48015;BME280;33780;51.034;7.120;2023-04-01T02:54:53;98633.88;;;11.77;71.82
48015;BME280;33780;51.034;7.120;2023-04-01T02:57:18;98629.53;;;11.76;72.37
48015;BME280;33780;51.034;7.120;2023-04-01T02:59:44;98633.25;;;11.75;72.14
48015;BME280;33780;51.034;7.120;2023-04-01T03:02:09;98627.25;;;11.73;71.87
48015;BME280;33780;51.034;7.120;2023-04-01T03:04:35;98622.91;;;11.72;72.03
48015;BME280;33780;51.034;7.120;2023-04-01T03:07:00;98620.22;;;11.72;71.86
48015;BME280;33780;51.034;7.120;2023-04-01T03:09:25;98619.59;;;11.70;72.21
48015;BME280;33780;51.034;7.120;2023-04-01T03:11:50;98618.78;;;11.69;72.09
48015;BME280;33780;51.034;7.120;2023-04-01T03:14:16;98625.16;;;11.68;72.50
48015;BME280;33780;51.034;7.120;2023-04-01T03:16:41;98619.94;;;11.67;72.53
48015;BME280;33780;51.034;7.120;2023-04-01T03:19:06;98625.16;;;11.68;72.62
48015;BME280;33780;51.034;7.120;2023-04-01T03:21:32;98623.50;;;11.67;72.38
48015;BME280;33780;51.034;7.120;2023-04-01T03:23:57;98637.72;;;11.68;72.30
48015;BME280;33780;51.034;7.120;2023-04-01T03:26:24;98625.31;;;11.67;72.78
48015;BME280;33780;51.034;7.120;2023-04-01T03:28:49;98632.72;;;11.65;72.89
48015;BME280;33780;51.034;7.120;2023-04-01T03:31:14;98640.13;;;11.63;72.61
48015;BME280;33780;51.034;7.120;2023-04-01T03:33:41;98634.94;;;11.61;72.72
48015;BME280;33780;51.034;7.120;2023-04-01T03:36:07;98635.97;;;11.60;73.35
48015;BME280;33780;51.034;7.120;2023-04-01T03:38:33;98627.28;;;11.58;72.99
48015;BME280;33780;51.034;7.120;2023-04-01T03:40:59;98638.00;;;11.58;73.12
48015;BME280;33780;51.034;7.120;2023-04-01T03:43:24;98643.38;;;11.58;73.06
48015;BME280;33780;51.034;7.120;2023-04-01T03:45:51;98638.19;;;11.57;73.15
48015;BME280;33780;51.034;7.120;2023-04-01T03:48:17;98637.38;;;11.56;73.31
48015;BME280;33780;51.034;7.120;2023-04-01T03:50:44;98641.91;;;11.56;73.24
48015;BME280;33780;51.034;7.120;2023-04-01T03:53:09;98650.13;;;11.54;73.72
48015;BME280;33780;51.034;7.120;2023-04-01T03:55:35;98649.09;;;11.55;73.56
48015;BME280;33780;51.034;7.120;2023-04-01T03:58:01;98653.00;;;11.53;73.60
48015;BME280;33780;51.034;7.120;2023-04-01T04:00:28;98644.78;;;11.54;73.31
48015;BME280;33780;51.034;7.120;2023-04-01T04:02:53;98650.13;;;11.54;73.62
48015;BME280;33780;51.034;7.120;2023-04-01T04:05:20;98645.59;;;11.55;73.50
48015;BME280;33780;51.034;7.120;2023-04-01T04:07:46;98651.16;;;11.53;73.91
48015;BME280;33780;51.034;7.120;2023-04-01T04:10:11;98648.66;;;11.52;74.06
48015;BME280;33780;51.034;7.120;2023-04-01T04:12:36;98652.34;;;11.50;73.99
48015;BME280;33780;51.034;7.120;2023-04-01T04:15:02;98654.84;;;11.52;73.75
48015;BME280;33780;51.034;7.120;2023-04-01T04:17:27;98657.53;;;11.52;73.87
48015;BME280;33780;51.034;7.120;2023-04-01T04:19:55;98664.53;;;11.53;73.89
48015;BME280;33780;51.034;7.120;2023-04-01T04:22:20;98656.50;;;11.53;73.81
48015;BME280;33780;51.034;7.120;2023-04-01T04:24:45;98661.03;;;11.53;74.16
48015;BME280;33780;51.034;7.120;2023-04-01T04:27:11;98657.53;;;11.52;73.68
48015;BME280;33780;51.034;7.120;2023-04-01T04:29:36;98662.69;;;11.54;73.83
48015;BME280;33780;51.034;7.120;2023-04-01T04:32:02;98667.22;;;11.53;74.01
48015;BME280;33780;51.034;7.120;2023-04-01T04:34:27;98658.34;;;11.53;74.06
48015;BME280;33780;51.034;7.120;2023-04-01T04:36:52;98647.66;;;11.53;73.99
48015;BME280;33780;51.034;7.120;2023-04-01T04:39:17;98650.31;;;11.53;74.15
48015;BME280;33780;51.034;7.120;2023-04-01T04:41:43;98654.03;;;11.52;74.24
48015;BME280;33780;51.034;7.120;2023-04-01T04:44:08;98661.88;;;11.53;74.41
48015;BME280;33780;51.034;7.120;2023-04-01T04:46:33;98659.19;;;11.53;74.01
48015;BME280;33780;51.034;7.120;2023-04-01T04:48:59;98648.66;;;11.52;73.99
48015;BME280;33780;51.034;7.120;2023-04-01T04:51:24;98648.84;;;11.50;73.81
48015;BME280;33780;51.034;7.120;2023-04-01T04:53:50;98651.53;;;11.50;74.27
48015;BME280;33780;51.034;7.120;2023-04-01T04:56:20;98659.38;;;11.52;74.18
48015;BME280;33780;51.034;7.120;2023-04-01T04:58:47;98651.34;;;11.52;74.42
48015;BME280;33780;51.034;7.120;2023-04-01T05:01:14;98661.22;;;11.51;74.30
48015;BME280;33780;51.034;7.120;2023-04-01T05:03:40;98661.22;;;11.51;74.54
48015;BME280;33780;51.034;7.120;2023-04-01T05:06:06;98667.59;;;11.50;74.67
48015;BME280;33780;51.034;7.120;2023-04-01T05:08:32;98670.28;;;11.50;74.45
48015;BME280;33780;51.034;7.120;2023-04-01T05:10:58;98670.44;;;11.48;74.53
48015;BME280;33780;51.034;7.120;2023-04-01T05:13:24;98666.94;;;11.48;74.58
48015;BME280;33780;51.034;7.120;2023-04-01T05:15:49;98673.13;;;11.48;74.63
48015;BME280;33780;51.034;7.120;2023-04-01T05:18:14;98673.31;;;11.47;74.54
48015;BME280;33780;51.034;7.120;2023-04-01T05:20:46;98673.31;;;11.47;74.87
48015;BME280;33780;51.034;7.120;2023-04-01T05:23:12;98680.53;;;11.46;74.88
48015;BME280;33780;51.034;7.120;2023-04-01T05:25:37;98683.19;;;11.46;74.65
48015;BME280;33780;51.034;7.120;2023-04-01T05:28:03;98677.00;;;11.46;74.71
48015;BME280;33780;51.034;7.120;2023-04-01T05:30:28;98685.03;;;11.46;75.08
48015;BME280;33780;51.034;7.120;2023-04-01T05:32:54;98680.91;;;11.43;75.04
48015;BME280;33780;51.034;7.120;2023-04-01T05:35:19;98677.56;;;11.41;74.83
48015;BME280;33780;51.034;7.120;2023-04-01T05:37:44;98684.78;;;11.41;75.01
48015;BME280;33780;51.034;7.120;2023-04-01T05:40:10;98679.44;;;11.41;75.24
48015;BME280;33780;51.034;7.120;2023-04-01T05:42:35;98683.75;;;11.42;75.24
48015;BME280;33780;51.034;7.120;2023-04-01T05:45:00;98687.28;;;11.42;75.12
48015;BME280;33780;51.034;7.120;2023-04-01T05:47:26;98687.28;;;11.42;75.26
48015;BME280;33780;51.034;7.120;2023-04-01T05:49:51;98688.09;;;11.43;75.60
48015;BME280;33780;51.034;7.120;2023-04-01T05:52:16;98690.78;;;11.43;75.77
48015;BME280;33780;51.034;7.120;2023-04-01T05:54:41;98695.13;;;11.44;75.60
48015;BME280;33780;51.034;7.120;2023-04-01T05:57:07;98689.13;;;11.42;75.65
48015;BME280;33780;51.034;7.120;2023-04-01T05:59:32;98702.50;;;11.42;75.65
48015;BME280;33780;51.034;7.120;2023-04-01T06:01:57;98700.66;;;11.42;75.86
48015;BME280;33780;51.034;7.120;2023-04-01T06:04:22;98701.50;;;11.43;75.73
48015;BME280;33780;51.034;7.120;2023-04-01T06:06:48;98704.34;;;11.41;76.22
48015;BME280;33780;51.034;7.120;2023-04-01T06:09:18;98704.56;;;11.40;76.39
48015;BME280;33780;51.034;7.120;2023-04-01T06:12:25;98709.25;;;11.38;76.35
48015;BME280;33780;51.034;7.120;2023-04-01T06:15:08;98715.44;;;11.38;75.99
48015;BME280;33780;51.034;7.120;2023-04-01T06:17:48;98711.13;;;11.37;76.35
48015;BME280;33780;51.034;7.120;2023-04-01T06:29:12;98716.00;;;11.34;76.29
48015;BME280;33780;51.034;7.120;2023-04-01T06:34:54;98724.25;;;11.32;76.62
48015;BME280;33780;51.034;7.120;2023-04-01T06:37:43;98727.75;;;11.33;76.99
48015;BME280;33780;51.034;7.120;2023-04-01T06:40:46;98719.72;;;11.33;76.76
48015;BME280;33780;51.034;7.120;2023-04-01T06:51:50;98725.72;;;11.35;77.49
48015;BME280;33780;51.034;7.120;2023-04-01T06:54:34;98722.19;;;11.34;77.24
48015;BME280;33780;51.034;7.120;2023-04-01T06:58:02;98729.03;;;11.37;77.16
48015;BME280;33780;51.034;7.120;2023-04-01T07:00:04;98738.72;;;11.38;77.12
48015;BME280;33780;51.034;7.120;2023-04-01T07:05:13;98738.16;;;11.42;77.70
48015;BME280;33780;51.034;7.120;2023-04-01T07:07:43;98739.81;;;11.43;77.55
48015;BME280;33780;51.034;7.120;2023-04-01T07:10:16;98741.47;;;11.44;77.46
48015;BME280;33780;51.034;7.120;2023-04-01T07:12:46;98743.78;;;11.47;77.65
48015;BME280;33780;51.034;7.120;2023-04-01T07:15:19;98737.41;;;11.48;77.79
48015;BME280;33780;51.034;7.120;2023-04-01T07:17:47;98739.25;;;11.48;77.60
48015;BME280;33780;51.034;7.120;2023-04-01T07:20:32;98748.97;;;11.49;77.47
48015;BME280;33780;51.034;7.120;2023-04-01T07:23:04;98747.28;;;11.48;77.90
48015;BME280;33780;51.034;7.120;2023-04-01T07:25:31;98750.53;;;11.43;77.68
48015;BME280;33780;51.034;7.120;2023-04-01T07:28:19;98748.22;;;11.40;78.17
48015;BME280;33780;51.034;7.120;2023-04-01T07:36:20;98759.31;;;11.37;78.17
48015;BME280;33780;51.034;7.120;2023-04-01T07:41:51;98770.88;;;11.38;77.98
48015;BME280;33780;51.034;7.120;2023-04-01T07:47:14;98774.38;;;11.38;78.21
48015;BME280;33780;51.034;7.120;2023-04-01T07:52:53;98775.00;;;11.40;78.58
48015;BME280;33780;51.034;7.120;2023-04-01T07:55:49;98779.34;;;11.41;78.31
48015;BME280;33780;51.034;7.120;2023-04-01T08:01:30;98786.56;;;11.41;78.72
48015;BME280;33780;51.034;7.120;2023-04-01T08:04:45;98783.88;;;11.41;78.38
48015;BME280;33780;51.034;7.120;2023-04-01T08:07:20;98783.06;;;11.40;78.91
48015;BME280;33780;51.034;7.120;2023-04-01T08:15:15;98795.22;;;11.43;78.76
48015;BME280;33780;51.034;7.120;2023-04-01T08:20:58;98812.78;;;11.45;78.62
48015;BME280;33780;51.034;7.120;2023-04-01T08:23:30;98820.63;;;11.47;78.97
48015;BME280;33780;51.034;7.120;2023-04-01T08:28:46;98810.94;;;11.46;78.95
48015;BME280;33780;51.034;7.120;2023-04-01T08:31:25;98813.59;;;11.46;79.02
48015;BME280;33780;51.034;7.120;2023-04-01T08:33:55;98810.75;;;11.47;79.21
48015;BME280;33780;51.034;7.120;2023-04-01T08:36:21;98819.63;;;11.48;79.05
48015;BME280;33780;51.034;7.120;2023-04-01T08:39:07;98831.00;;;11.50;79.26
48015;BME280;33780;51.034;7.120;2023-04-01T08:44:45;98826.81;;;11.47;79.25
48015;BME280;33780;51.034;7.120;2023-04-01T08:47:35;98834.22;;;11.45;79.68
48015;BME280;33780;51.034;7.120;2023-04-01T08:50:26;98833.38;;;11.45;79.93
48015;BME280;33780;51.034;7.120;2023-04-01T09:04:14;98855.63;;;11.45;79.83
48015;BME280;33780;51.034;7.120;2023-04-01T09:09:36;98858.31;;;11.45;79.84
48015;BME280;33780;51.034;7.120;2023-04-01T09:12:10;98858.97;;;11.47;79.91
48015;BME280;33780;51.034;7.120;2023-04-01T09:23:27;98870.69;;;11.46;80.05
48015;BME280;33780;51.034;7.120;2023-04-01T09:25:59;98876.03;;;11.46;79.65
48015;BME280;33780;51.034;7.120;2023-04-01T09:36:38;98884.72;;;11.48;80.21
48015;BME280;33780;51.034;7.120;2023-04-01T09:39:32;98888.41;;;11.47;79.97
48015;BME280;33780;51.034;7.120;2023-04-01T09:44:36;98896.13;;;11.50;79.95
48015;BME280;33780;51.034;7.120;2023-04-01T09:47:43;98906.47;;;11.54;79.95
48015;BME280;33780;51.034;7.120;2023-04-01T09:56:05;98901.38;;;11.59;80.09
48015;BME280;33780;51.034;7.120;2023-04-01T10:02:17;98908.22;;;11.61;80.03
48015;BME280;33780;51.034;7.120;2023-04-01T10:13:12;98929.94;;;11.66;79.76
48015;BME280;33780;51.034;7.120;2023-04-01T10:24:38;98940.00;;;11.64;80.04
48015;BME280;33780;51.034;7.120;2023-04-01T10:30:17;98947.84;;;11.66;79.53
48015;BME280;33780;51.034;7.120;2023-04-01T10:36:14;98950.53;;;11.66;79.75
48015;BME280;33780;51.034;7.120;2023-04-01T10:38:58;98952.19;;;11.67;80.04
48015;BME280;33780;51.034;7.120;2023-04-01T10:55:35;98963.94;;;11.66;79.79
48015;BME280;33780;51.034;7.120;2023-04-01T10:58:44;98953.22;;;11.66;79.68
48015;BME280;33780;51.034;7.120;2023-04-01T11:16:11;98971.97;;;11.66;79.65
48015;BME280;33780;51.034;7.120;2023-04-01T11:32:11;98985.88;;;11.69;79.70
48015;BME280;33780;51.034;7.120;2023-04-01T11:35:12;98991.03;;;11.71;80.19
48015;BME280;33780;51.034;7.120;2023-04-01T11:38:15;98996.22;;;11.72;80.60
48015;BME280;33780;51.034;7.120;2023-04-01T11:43:38;98995.97;;;11.82;80.07
48015;BME280;33780;51.034;7.120;2023-04-01T11:48:55;99004.13;;;11.89;80.00
48015;BME280;33780;51.034;7.120;2023-04-01T12:00:44;99016.63;;;11.96;79.65
48015;BME280;33780;51.034;7.120;2023-04-01T12:06:51;99016.63;;;11.96;80.00
48015;BME280;33780;51.034;7.120;2023-04-01T12:09:49;99014.78;;;11.97;80.01
48015;BME280;33780;51.034;7.120;2023-04-01T12:15:22;99022.44;;;12.00;79.90
48015;BME280;33780;51.034;7.120;2023-04-01T12:20:55;99044.53;;;12.02;79.67
48015;BME280;33780;51.034;7.120;2023-04-01T12:32:09;99052.44;;;12.03;79.52
48015;BME280;33780;51.034;7.120;2023-04-01T12:37:59;99051.22;;;12.06;79.32
48015;BME280;33780;51.034;7.120;2023-04-01T12:57:26;99066.75;;;12.10;79.08
48015;BME280;33780;51.034;7.120;2023-04-01T13:06:22;99070.81;;;12.06;78.96
48015;BME280;33780;51.034;7.120;2023-04-01T13:12:06;99083.59;;;12.04;78.97
48015;BME280;33780;51.034;7.120;2023-04-01T13:17:52;99084.59;;;12.03;78.88
48015;BME280;33780;51.034;7.120;2023-04-01T13:20:40;99087.44;;;12.02;79.04
48015;BME280;33780;51.034;7.120;2023-04-01T13:28:20;99094.50;;;12.03;79.18
48015;BME280;33780;51.034;7.120;2023-04-01T13:34:09;99101.34;;;12.05;79.46
48015;BME280;33780;51.034;7.120;2023-04-01T13:42:14;99111.22;;;12.05;79.46
48015;BME280;33780;51.034;7.120;2023-04-01T13:44:56;99108.53;;;12.05;79.14
48015;BME280;33780;51.034;7.120;2023-04-01T13:53:11;99113.41;;;12.01;79.48
48015;BME280;33780;51.034;7.120;2023-04-01T13:58:49;99118.78;;;12.01;79.12
48015;BME280;33780;51.034;7.120;2023-04-01T14:01:32;99134.53;;;12.04;79.58
48015;BME280;33780;51.034;7.120;2023-04-01T14:17:42;99144.06;;;12.07;79.77
48015;BME280;33780;51.034;7.120;2023-04-01T14:20:22;99149.88;;;12.10;79.99
48015;BME280;33780;51.034;7.120;2023-04-01T14:23:13;99152.19;;;12.14;80.02
48015;BME280;33780;51.034;7.120;2023-04-01T14:28:52;99148.50;;;12.15;80.06
48015;BME280;33780;51.034;7.120;2023-04-01T14:47:54;99168.66;;;12.10;79.90
48015;BME280;33780;51.034;7.120;2023-04-01T14:50:25;99162.47;;;12.10;80.34
48015;BME280;33780;51.034;7.120;2023-04-01T14:52:58;99174.03;;;12.10;79.89
48015;BME280;33780;51.034;7.120;2023-04-01T14:55:32;99168.84;;;12.09;80.02
48015;BME280;33780;51.034;7.120;2023-04-01T14:58:08;99166.34;;;12.07;79.89
48015;BME280;33780;51.034;7.120;2023-04-01T15:00:59;99179.94;;;12.06;80.02
48015;BME280;33780;51.034;7.120;2023-04-01T15:09:28;99176.09;;;12.00;80.36
48015;BME280;33780;51.034;7.120;2023-04-01T15:12:31;99187.84;;;11.99;80.37
48015;BME280;33780;51.034;7.120;2023-04-01T15:15:48;99198.56;;;11.99;80.03
48015;BME280;33780;51.034;7.120;2023-04-01T15:18:32;99196.88;;;11.98;80.41
48015;BME280;33780;51.034;7.120;2023-04-01T15:21:19;99201.97;;;11.93;80.91
48015;BME280;33780;51.034;7.120;2023-04-01T15:38:01;99223.75;;;11.90;80.40
48015;BME280;33780;51.034;7.120;2023-04-01T15:40:50;99231.63;;;11.92;80.44
48015;BME280;33780;51.034;7.120;2023-04-01T15:43:45;99228.94;;;11.92;80.49
48015;BME280;33780;51.034;7.120;2023-04-01T15:46:41;99227.28;;;11.91;80.31
48015;BME280;33780;51.034;7.120;2023-04-01T15:52:02;99241.16;;;11.94;81.09
48015;BME280;33780;51.034;7.120;2023-04-01T16:23:59;99280.34;;;11.95;80.44
48015;BME280;33780;51.034;7.120;2023-04-01T16:26:52;99274.81;;;11.97;80.34
48015;BME280;33780;51.034;7.120;2023-04-01T16:29:22;99280.19;;;11.97;80.32
48015;BME280;33780;51.034;7.120;2023-04-01T16:31:57;99283.03;;;11.95;80.32
48015;BME280;33780;51.034;7.120;2023-04-01T16:34:34;99283.03;;;11.95;80.52
48015;BME280;33780;51.034;7.120;2023-04-01T16:37:11;99284.88;;;11.95;80.09
48015;BME280;33780;51.034;7.120;2023-04-01T16:39:47;99290.06;;;11.96;80.65
48015;BME280;33780;51.034;7.120;2023-04-01T16:42:17;99296.25;;;11.97;80.14
48015;BME280;33780;51.034;7.120;2023-04-01T16:45:19;99304.31;;;11.97;80.46
48015;BME280;33780;51.034;7.120;2023-04-01T16:48:05;99309.66;;;11.97;80.42
48015;BME280;33780;51.034;7.120;2023-04-01T16:55:55;99311.88;;;11.93;80.03
48015;BME280;33780;51.034;7.120;2023-04-01T17:01:30;99321.75;;;11.93;80.38
48015;BME280;33780;51.034;7.120;2023-04-01T17:04:11;99326.28;;;11.92;80.13
48015;BME280;33780;51.034;7.120;2023-04-01T17:09:29;99334.69;;;11.89;80.21
48015;BME280;33780;51.034;7.120;2023-04-01T17:14:29;99338.38;;;11.88;80.05
48015;BME280;33780;51.034;7.120;2023-04-01T17:19:45;99351.97;;;11.87;80.20
48015;BME280;33780;51.034;7.120;2023-04-01T17:27:41;99357.16;;;11.80;80.46
48015;BME280;33780;51.034;7.120;2023-04-01T17:30:24;99366.34;;;11.77;80.46
48015;BME280;33780;51.034;7.120;2023-04-01T17:33:27;99358.47;;;11.76;80.32
48015;BME280;33780;51.034;7.120;2023-04-01T17:41:16;99378.44;;;11.73;80.26
48015;BME280;33780;51.034;7.120;2023-04-01T17:43:59;99374.25;;;11.71;80.15
48015;BME280;33780;51.034;7.120;2023-04-01T17:52:16;99390.69;;;11.68;80.71
48015;BME280;33780;51.034;7.120;2023-04-01T17:55:15;99392.53;;;11.67;80.93
48015;BME280;33780;51.034;7.120;2023-04-01T17:57:52;99395.34;;;11.66;80.68
48015;BME280;33780;51.034;7.120;2023-04-01T18:11:20;99420.47;;;11.65;80.72
48015;BME280;33780;51.034;7.120;2023-04-01T18:14:27;99422.31;;;11.64;80.90
48015;BME280;33780;51.034;7.120;2023-04-01T18:17:12;99418.81;;;11.64;80.72
48015;BME280;33780;51.034;7.120;2023-04-01T18:25:37;99434.88;;;11.64;81.08
48015;BME280;33780;51.034;7.120;2023-04-01T18:30:44;99447.44;;;11.63;81.15
48015;BME280;33780;51.034;7.120;2023-04-01T18:33:29;99463.69;;;11.62;80.76
48015;BME280;33780;51.034;7.120;2023-04-01T18:36:13;99463.03;;;11.60;81.08
48015;BME280;33780;51.034;7.120;2023-04-01T18:38:48;99464.88;;;11.59;81.03
48015;BME280;33780;51.034;7.120;2023-04-01T18:41:30;99464.38;;;11.56;80.86
48015;BME280;33780;51.034;7.120;2023-04-01T18:47:15;99468.41;;;11.52;80.77
48015;BME280;33780;51.034;7.120;2023-04-01T18:50:00;99475.44;;;11.53;81.07
48015;BME280;33780;51.034;7.120;2023-04-01T18:52:36;99484.31;;;11.53;80.88
48015;BME280;33780;51.034;7.120;2023-04-01T18:57:52;99484.31;;;11.53;80.89
48015;BME280;33780;51.034;7.120;2023-04-01T19:00:27;99487.81;;;11.54;80.89
48015;BME280;33780;51.034;7.120;2023-04-01T19:03:11;99494.03;;;11.54;81.33
48015;BME280;33780;51.034;7.120;2023-04-01T19:05:42;99492.34;;;11.53;81.13
48015;BME280;33780;51.034;7.120;2023-04-01T19:08:19;99496.88;;;11.53;80.77
48015;BME280;33780;51.034;7.120;2023-04-01T19:13:30;99503.91;;;11.54;80.86
48015;BME280;33780;51.034;7.120;2023-04-01T19:16:16;99503.91;;;11.54;80.63
48015;BME280;33780;51.034;7.120;2023-04-01T19:19:01;99504.91;;;11.53;80.82
48015;BME280;33780;51.034;7.120;2023-04-01T19:21:43;99510.28;;;11.53;80.39
48015;BME280;33780;51.034;7.120;2023-04-01T19:27:06;99518.47;;;11.51;80.65
48015;BME280;33780;51.034;7.120;2023-04-01T19:29:42;99528.34;;;11.50;80.54
48015;BME280;33780;51.034;7.120;2023-04-01T19:35:18;99521.31;;;11.49;80.60
48015;BME280;33780;51.034;7.120;2023-04-01T19:37:56;99526.81;;;11.48;80.81
48015;BME280;33780;51.034;7.120;2023-04-01T19:40:48;99525.31;;;11.45;80.79
48015;BME280;33780;51.034;7.120;2023-04-01T19:46:07;99534.38;;;11.44;80.44
48015;BME280;33780;51.034;7.120;2023-04-01T19:54:34;99542.41;;;11.44;80.85
48015;BME280;33780;51.034;7.120;2023-04-01T19:57:26;99545.25;;;11.43;80.61
48015;BME280;33780;51.034;7.120;2023-04-01T20:00:07;99548.94;;;11.42;80.48
48015;BME280;33780;51.034;7.120;2023-04-01T20:03:01;99547.94;;;11.43;80.77
48015;BME280;33780;51.034;7.120;2023-04-01T20:05:47;99551.59;;;11.42;80.39
48015;BME280;33780;51.034;7.120;2023-04-01T20:11:13;99563.16;;;11.42;80.80
48015;BME280;33780;51.034;7.120;2023-04-01T20:13:48;99566.84;;;11.41;80.30
48015;BME280;33780;51.034;7.120;2023-04-01T20:16:16;99565.00;;;11.42;80.66
48015;BME280;33780;51.034;7.120;2023-04-01T20:18:57;99578.56;;;11.40;80.79
48015;BME280;33780;51.034;7.120;2023-04-01T20:21:32;99575.88;;;11.40;80.49
48015;BME280;33780;51.034;7.120;2023-04-01T20:24:07;99584.94;;;11.39;80.53
48015;BME280;33780;51.034;7.120;2023-04-01T20:26:43;99587.78;;;11.38;80.71
48015;BME280;33780;51.034;7.120;2023-04-01T20:29:35;99592.28;;;11.37;80.38
48015;BME280;33780;51.034;7.120;2023-04-01T20:37:47;99597.81;;;11.36;80.42
48015;BME280;33780;51.034;7.120;2023-04-01T20:40:32;99606.03;;;11.34;80.86
48015;BME280;33780;51.034;7.120;2023-04-01T20:45:32;99614.38;;;11.31;80.67